createdAt,value
2022-10-29T00:02:01.722Z,6.67
2022-10-29T00:04:28.256Z,6.50
2022-10-29T00:06:54.770Z,6.43
2022-10-29T00:09:21.305Z,6.97
2022-10-29T00:11:47.827Z,6.33
2022-10-29T00:14:14.306Z,6.00
2022-10-29T00:16:40.809Z,6.70
2022-10-29T00:19:07.397Z,6.13
2022-10-29T00:21:34.638Z,6.07
2022-10-29T00:24:01.184Z,6.30
2022-10-29T00:26:29.771Z,6.03
2022-10-29T00:28:57.184Z,6.33
2022-10-29T00:31:24.604Z,6.13
2022-10-29T00:33:52.848Z,6.73
2022-10-29T00:36:22.366Z,5.93
2022-10-29T00:38:49.657Z,6.77
2022-10-29T00:41:28.178Z,6.33
2022-10-29T00:44:20.425Z,6.33
2022-10-29T00:47:16.476Z,6.67
2022-10-29T00:49:44.247Z,6.80
2022-10-29T00:52:11.141Z,5.90
2022-10-29T00:54:40.955Z,7.10
2022-10-29T00:57:12.557Z,6.53
2022-10-29T00:59:41.035Z,6.80
2022-10-29T01:02:07.760Z,6.27
2022-10-29T01:04:35.217Z,6.63
2022-10-29T01:07:01.957Z,6.20
2022-10-29T01:09:28.469Z,6.93
2022-10-29T01:12:21.384Z,6.63
2022-10-29T01:15:14.134Z,6.10
2022-10-29T01:17:55.834Z,5.90
2022-10-29T01:21:00.271Z,5.87
2022-10-29T01:23:51.580Z,5.73
2022-10-29T01:26:33.135Z,5.70
2022-10-29T01:29:21.269Z,5.93
2022-10-29T01:32:20.127Z,6.60
2022-10-29T01:34:58.026Z,6.33
2022-10-29T01:37:24.474Z,6.10
2022-10-29T01:40:12.505Z,5.97
2022-10-29T01:42:45.090Z,6.33
2022-10-29T01:45:28.237Z,7.00
2022-10-29T01:47:59.370Z,6.87
2022-10-29T01:50:26.746Z,6.47
2022-10-29T01:52:55.832Z,7.10
2022-10-29T01:55:29.991Z,6.30
2022-10-29T01:57:56.881Z,6.60
2022-10-29T02:00:24.466Z,6.90
2022-10-29T02:02:57.171Z,6.90
2022-10-29T02:05:35.203Z,6.47
2022-10-29T02:08:19.786Z,6.97
2022-10-29T02:10:54.257Z,7.73
2022-10-29T02:13:28.253Z,6.20
2022-10-29T02:15:56.933Z,7.10
2022-10-29T02:18:23.461Z,7.70
2022-10-29T02:20:49.972Z,6.73
2022-10-29T02:23:17.410Z,6.37
2022-10-29T02:25:44.043Z,6.67
2022-10-29T02:28:10.758Z,6.63
2022-10-29T02:30:37.326Z,6.67
2022-10-29T02:33:03.910Z,6.07
2022-10-29T02:35:30.433Z,6.20
2022-10-29T02:37:56.937Z,5.77
2022-10-29T02:40:23.399Z,6.13
2022-10-29T02:42:49.917Z,5.97
2022-10-29T02:45:16.429Z,6.10
2022-10-29T02:47:43.009Z,5.80
2022-10-29T02:50:09.655Z,6.10
2022-10-29T02:52:36.160Z,5.83
2022-10-29T02:55:02.657Z,5.73
2022-10-29T02:57:29.219Z,5.27
2022-10-29T02:59:55.741Z,5.90
2022-10-29T03:02:22.350Z,6.33
2022-10-29T03:04:48.984Z,5.87
2022-10-29T03:07:15.487Z,5.30
2022-10-29T03:09:41.971Z,5.77
2022-10-29T03:12:08.553Z,5.40
2022-10-29T03:14:35.102Z,5.40
2022-10-29T03:17:01.621Z,5.63
2022-10-29T03:19:28.109Z,5.67
2022-10-29T03:21:54.578Z,5.63
2022-10-29T03:24:21.083Z,4.73
2022-10-29T03:26:47.617Z,4.83
2022-10-29T03:29:14.142Z,5.40
2022-10-29T03:31:40.676Z,5.30
2022-10-29T03:34:07.200Z,5.30
2022-10-29T03:36:33.667Z,6.03
2022-10-29T03:39:00.168Z,6.97
2022-10-29T03:41:26.644Z,6.10
2022-10-29T03:43:53.217Z,6.23
2022-10-29T03:46:19.834Z,5.73
2022-10-29T03:48:49.659Z,6.20
2022-10-29T03:51:16.146Z,6.20
2022-10-29T03:53:42.663Z,7.13
2022-10-29T03:56:10.041Z,7.23
2022-10-29T03:58:36.564Z,7.00
2022-10-29T04:01:08.506Z,6.97
2022-10-29T04:03:37.443Z,6.73
2022-10-29T04:06:13.271Z,6.87
2022-10-29T04:08:40.427Z,7.07
2022-10-29T04:11:08.946Z,7.43
2022-10-29T04:13:35.501Z,8.30
2022-10-29T04:16:02.004Z,7.57
2022-10-29T04:18:28.635Z,8.37
2022-10-29T04:28:03.083Z,8.53
2022-10-29T04:29:18.807Z,8.90
2022-10-29T04:31:45.312Z,9.73
2022-10-29T04:34:11.870Z,8.67
2022-10-29T04:36:38.385Z,10.67
2022-10-29T04:39:04.911Z,10.63
2022-10-29T04:41:31.573Z,10.17
2022-10-29T04:43:58.124Z,10.57
2022-10-29T04:46:24.723Z,10.40
2022-10-29T04:48:51.298Z,11.93
2022-10-29T04:51:23.257Z,12.07
2022-10-29T04:53:50.223Z,13.43
2022-10-29T04:56:17.248Z,13.80
2022-10-29T04:58:44.303Z,13.63
2022-10-29T05:01:11.157Z,13.27
2022-10-29T05:03:37.799Z,13.13
2022-10-29T05:06:05.744Z,13.87
2022-10-29T05:08:32.590Z,15.73
2022-10-29T05:11:03.392Z,14.97
2022-10-29T05:13:30.856Z,17.40
2022-10-29T05:15:57.651Z,17.37
2022-10-29T05:18:24.232Z,16.03
2022-10-29T05:20:57.082Z,16.63
2022-10-29T05:23:23.811Z,16.80
2022-10-29T05:25:52.304Z,16.30
2022-10-29T05:28:21.444Z,16.70
2022-10-29T05:30:50.096Z,16.20
2022-10-29T05:33:24.638Z,15.03
2022-10-29T05:35:51.580Z,15.30
2022-10-29T05:38:18.467Z,13.27
2022-10-29T05:40:45.443Z,14.23
2022-10-29T05:43:16.487Z,15.03
2022-10-29T05:45:43.280Z,14.60
2022-10-29T05:50:42.518Z,15.17
2022-10-29T05:53:12.433Z,13.80
2022-10-29T05:55:39.432Z,14.40
2022-10-29T05:58:10.059Z,13.53
2022-10-29T06:00:39.132Z,13.83
2022-10-29T06:03:17.446Z,14.40
2022-10-29T06:05:44.575Z,13.60
2022-10-29T06:08:11.143Z,13.63
2022-10-29T06:10:37.848Z,13.60
2022-10-29T06:13:15.933Z,12.90
2022-10-29T06:15:42.916Z,15.13
2022-10-29T06:18:10.316Z,13.63
2022-10-29T06:20:38.224Z,14.97
2022-10-29T06:23:05.347Z,14.67
2022-10-29T06:25:31.901Z,17.90
2022-10-29T06:28:16.475Z,15.77
2022-10-29T06:30:48.274Z,15.43
2022-10-29T06:33:15.961Z,16.90
2022-10-29T06:35:42.676Z,16.30
2022-10-29T06:38:12.342Z,17.77
2022-10-29T06:40:40.075Z,15.93
2022-10-29T06:43:09.363Z,17.03
2022-10-29T06:45:36.221Z,17.77
2022-10-29T06:48:05.143Z,17.00
2022-10-29T06:50:31.652Z,16.53
2022-10-29T06:53:00.382Z,17.87
2022-10-29T06:55:27.657Z,17.20
2022-10-29T06:58:05.216Z,17.13
2022-10-29T07:00:33.002Z,17.53
2022-10-29T07:03:00.333Z,17.20
2022-10-29T07:05:27.459Z,18.07
2022-10-29T07:07:58.519Z,17.80
2022-10-29T07:10:27.810Z,16.53
2022-10-29T07:12:54.480Z,16.97
2022-10-29T07:15:24.255Z,15.77
2022-10-29T07:18:03.275Z,17.70
2022-10-29T07:20:32.055Z,16.70
2022-10-29T07:23:00.441Z,16.10
2022-10-29T07:25:27.975Z,16.67
2022-10-29T07:27:55.371Z,16.53
2022-10-29T07:30:22.249Z,15.87
2022-10-29T07:32:48.782Z,17.00
2022-10-29T07:35:15.349Z,17.77
2022-10-29T07:37:41.926Z,16.27
2022-10-29T07:40:09.094Z,16.87
2022-10-29T07:42:35.624Z,17.87
2022-10-29T07:45:02.121Z,18.53
2022-10-29T07:47:28.620Z,18.33
2022-10-29T07:49:55.151Z,19.57
2022-10-29T07:52:21.675Z,20.37
2022-10-29T07:54:48.179Z,18.63
2022-10-29T07:57:15.913Z,19.00
2022-10-29T07:59:42.764Z,19.43
2022-10-29T08:02:12.250Z,18.83
2022-10-29T08:04:38.827Z,19.50
2022-10-29T08:07:05.432Z,20.47
2022-10-29T08:09:31.936Z,19.40
2022-10-29T08:11:58.464Z,18.07
2022-10-29T08:14:24.939Z,19.10
2022-10-29T08:16:54.684Z,19.00
2022-10-29T08:19:21.727Z,20.87
2022-10-29T08:21:48.274Z,21.17
2022-10-29T08:24:14.871Z,21.97
2022-10-29T08:26:41.378Z,22.57
2022-10-29T08:29:08.109Z,22.50
2022-10-29T08:31:34.633Z,23.43
2022-10-29T08:34:01.204Z,21.90
2022-10-29T08:36:27.672Z,22.77
2022-10-29T08:38:54.185Z,24.50
2022-10-29T08:41:41.982Z,25.07
2022-10-29T08:44:37.734Z,24.83
2022-10-29T08:47:09.692Z,26.70
2022-10-29T08:50:15.845Z,26.70
2022-10-29T08:52:53.331Z,25.67
2022-10-29T08:55:36.557Z,26.03
2022-10-29T08:58:21.707Z,25.23
2022-10-29T09:00:52.960Z,23.23
2022-10-29T09:03:19.687Z,25.67
2022-10-29T09:05:49.922Z,24.33
2022-10-29T09:08:22.360Z,25.00
2022-10-29T09:10:55.727Z,25.20
2022-10-29T09:13:45.866Z,24.53
2022-10-29T09:16:44.632Z,24.67
2022-10-29T09:19:29.564Z,23.70
2022-10-29T09:22:21.908Z,23.00
2022-10-29T09:25:18.143Z,26.73
2022-10-29T09:28:13.387Z,23.60
2022-10-29T09:31:31.701Z,24.00
2022-10-29T09:34:11.229Z,23.13
2022-10-29T09:36:38.107Z,23.57
2022-10-29T09:39:12.549Z,21.60
2022-10-29T09:41:40.076Z,22.57
2022-10-29T09:44:29.153Z,22.00
2022-10-29T09:47:29.725Z,22.03
2022-10-29T09:50:20.276Z,20.67
2022-10-29T09:52:48.946Z,20.90
2022-10-29T09:55:24.507Z,20.40
2022-10-29T09:57:51.916Z,20.40
2022-10-29T10:00:22.923Z,20.10
2022-10-29T10:02:56.652Z,18.83
2022-10-29T10:05:27.204Z,18.33
2022-10-29T10:08:13.918Z,17.30
2022-10-29T10:10:56.520Z,17.50
2022-10-29T10:13:31.950Z,16.97
2022-10-29T10:16:00.814Z,16.30
2022-10-29T10:18:47.576Z,17.33
2022-10-29T10:21:25.402Z,18.17
2022-10-29T10:23:54.298Z,16.87
2022-10-29T10:26:43.381Z,16.90
2022-10-29T10:29:21.730Z,17.03
2022-10-29T10:31:55.081Z,17.03
2022-10-29T10:34:25.580Z,16.13
2022-10-29T10:37:03.743Z,17.10
2022-10-29T10:39:35.376Z,16.77
2022-10-29T10:42:06.572Z,17.63
2022-10-29T10:44:33.887Z,17.33
2022-10-29T10:47:07.011Z,18.13
2022-10-29T10:49:38.850Z,18.13
2022-10-29T10:52:21.366Z,17.40
2022-10-29T10:54:55.656Z,18.60
2022-10-29T10:57:36.474Z,19.27
2022-10-29T11:00:19.730Z,19.57
2022-10-29T11:03:01.474Z,18.93
2022-10-29T11:05:34.123Z,19.70
2022-10-29T11:08:16.260Z,18.73
2022-10-29T11:11:05.007Z,19.17
2022-10-29T11:13:34.340Z,18.50
2022-10-29T11:16:28.318Z,17.73
2022-10-29T11:19:18.963Z,17.97
2022-10-29T11:22:03.900Z,17.80
2022-10-29T11:24:41.575Z,16.87
2022-10-29T11:27:21.000Z,17.27
2022-10-29T11:30:04.055Z,17.73
2022-10-29T11:32:46.711Z,17.97
2022-10-29T11:35:20.518Z,18.23
2022-10-29T11:37:57.713Z,17.70
2022-10-29T11:40:30.824Z,18.00
2022-10-29T11:42:57.366Z,20.27
2022-10-29T11:45:34.945Z,26.30
2022-10-29T11:48:16.542Z,26.33
2022-10-29T11:51:04.017Z,19.53
2022-10-29T11:53:55.597Z,17.50
2022-10-29T11:56:39.764Z,17.37
2022-10-29T11:59:57.581Z,16.70
2022-10-29T12:03:08.376Z,14.80
2022-10-29T12:05:44.065Z,15.10
2022-10-29T12:08:32.102Z,15.40
2022-10-29T12:11:13.052Z,14.70
2022-10-29T12:13:39.530Z,14.60
2022-10-29T12:16:40.489Z,15.17
2022-10-29T12:19:23.893Z,15.17
2022-10-29T12:21:57.234Z,15.03
2022-10-29T12:24:48.391Z,14.97
2022-10-29T12:27:36.085Z,14.53
2022-10-29T12:30:07.573Z,15.07
2022-10-29T12:32:50.779Z,14.97
2022-10-29T12:35:29.180Z,14.63
2022-10-29T12:38:10.798Z,14.83
2022-10-29T12:40:45.267Z,14.67
2022-10-29T12:43:26.122Z,14.63
2022-10-29T12:46:21.259Z,15.23
2022-10-29T12:48:57.498Z,15.03
2022-10-29T12:51:46.421Z,13.77
2022-10-29T12:54:35.799Z,14.23
2022-10-29T12:57:26.532Z,13.40
2022-10-29T12:59:53.088Z,13.23
2022-10-29T13:02:19.708Z,12.97
2022-10-29T13:05:09.718Z,12.70
2022-10-29T13:07:57.847Z,11.10
2022-10-29T13:10:25.173Z,12.80
2022-10-29T13:13:16.479Z,11.93
2022-10-29T13:16:06.390Z,13.10
2022-10-29T13:18:47.076Z,11.17
2022-10-29T13:21:13.603Z,12.03
2022-10-29T13:23:40.258Z,10.43
2022-10-29T13:26:09.645Z,10.90
2022-10-29T13:28:36.069Z,11.93
2022-10-29T13:31:08.461Z,10.23
2022-10-29T13:33:37.851Z,11.27
2022-10-29T13:36:05.793Z,10.27
2022-10-29T13:39:07.455Z,10.10
2022-10-29T13:41:42.350Z,9.67
2022-10-29T13:44:24.393Z,10.27
2022-10-29T13:46:56.161Z,10.17
2022-10-29T13:49:25.336Z,10.83
2022-10-29T13:52:16.721Z,10.30
2022-10-29T13:54:56.296Z,9.33
2022-10-29T13:57:25.317Z,10.73
2022-10-29T14:00:14.271Z,10.03
2022-10-29T14:02:43.878Z,10.80
2022-10-29T14:05:38.511Z,9.00
2022-10-29T14:08:17.219Z,10.97
2022-10-29T14:10:43.675Z,10.47
2022-10-29T14:13:34.150Z,10.93
2022-10-29T14:16:06.577Z,9.77
2022-10-29T14:18:36.745Z,9.57
2022-10-29T14:21:06.318Z,11.13
2022-10-29T14:23:33.647Z,10.53
2022-10-29T14:26:03.856Z,10.70
2022-10-29T14:28:32.394Z,10.10
2022-10-29T14:31:15.225Z,8.87
2022-10-29T14:33:43.437Z,9.10
2022-10-29T14:36:09.923Z,9.10
2022-10-29T14:38:57.428Z,9.03
2022-10-29T14:41:25.631Z,8.23
2022-10-29T14:44:16.406Z,8.53
2022-10-29T14:46:50.219Z,7.57
2022-10-29T14:49:24.611Z,7.93
2022-10-29T14:51:55.051Z,8.43
2022-10-29T14:54:34.164Z,7.90
2022-10-29T14:57:06.423Z,7.83
2022-10-29T14:59:35.370Z,7.00
2022-10-29T15:02:36.216Z,7.40
2022-10-29T15:05:01.878Z,7.00
2022-10-29T15:07:35.384Z,8.17
2022-10-29T15:10:03.705Z,7.27
2022-10-29T15:12:38.858Z,7.77
2022-10-29T15:15:11.206Z,7.03
2022-10-29T15:18:00.890Z,7.33
2022-10-29T15:20:48.201Z,6.93
2022-10-29T15:23:28.003Z,7.30
2022-10-29T15:26:01.876Z,8.80
2022-10-29T15:28:31.487Z,7.80
2022-10-29T15:31:02.174Z,8.83
2022-10-29T15:33:30.182Z,7.47
2022-10-29T15:36:02.029Z,7.33
2022-10-29T15:38:31.461Z,7.83
2022-10-29T15:41:21.020Z,7.40
2022-10-29T15:43:49.099Z,7.30
2022-10-29T15:46:26.544Z,7.60
2022-10-29T15:48:53.450Z,7.30
2022-10-29T15:51:31.012Z,7.80
2022-10-29T15:54:02.011Z,8.10
2022-10-29T15:56:30.036Z,7.57
2022-10-29T15:58:58.209Z,7.90
2022-10-29T16:01:24.863Z,7.70
2022-10-29T16:03:51.656Z,7.80
2022-10-29T16:06:18.410Z,7.77
2022-10-29T16:08:48.455Z,7.57
2022-10-29T16:11:20.163Z,7.70
2022-10-29T16:13:53.393Z,8.57
2022-10-29T16:16:23.965Z,9.27
2022-10-29T16:18:51.546Z,9.70
2022-10-29T16:21:23.600Z,8.57
2022-10-29T16:23:51.467Z,9.73
2022-10-29T16:26:21.328Z,10.07
2022-10-29T16:28:48.200Z,11.27
2022-10-29T16:31:25.939Z,11.70
2022-10-29T16:33:56.466Z,10.63
2022-10-29T16:36:23.056Z,10.67
2022-10-29T16:38:49.590Z,11.37
2022-10-29T16:41:18.212Z,11.90
2022-10-29T16:43:45.613Z,11.70
2022-10-29T16:46:12.991Z,12.50
2022-10-29T16:48:40.042Z,12.23
2022-10-29T16:51:07.207Z,12.50
2022-10-29T16:53:34.572Z,12.33
2022-10-29T16:56:01.732Z,12.63
2022-10-29T16:58:28.322Z,12.40
2022-10-29T17:01:06.348Z,13.37
2022-10-29T17:03:33.349Z,12.20
2022-10-29T17:06:10.697Z,15.13
2022-10-29T17:08:38.176Z,13.87
2022-10-29T17:11:06.492Z,13.33
2022-10-29T17:13:34.058Z,13.63
2022-10-29T17:16:00.593Z,13.20
2022-10-29T17:18:27.105Z,13.83
2022-10-29T17:20:58.834Z,12.87
2022-10-29T17:23:25.931Z,13.40
2022-10-29T17:25:56.745Z,15.00
2022-10-29T17:28:24.810Z,14.43
2022-10-29T17:30:51.684Z,15.40
2022-10-29T17:33:18.544Z,15.13
2022-10-29T17:35:45.417Z,14.83
2022-10-29T17:38:12.267Z,16.17
2022-10-29T17:40:39.079Z,15.33
2022-10-29T17:43:05.910Z,15.23
2022-10-29T17:45:32.473Z,15.50
2022-10-29T17:47:59.448Z,14.80
2022-10-29T17:50:26.967Z,16.33
2022-10-29T17:52:55.047Z,15.50
2022-10-29T17:55:21.581Z,17.27
2022-10-29T17:57:48.131Z,17.43
2022-10-29T18:00:15.319Z,16.17
2022-10-29T18:02:42.157Z,17.53
2022-10-29T18:05:08.956Z,18.50
2022-10-29T18:07:35.707Z,17.83
2022-10-29T18:10:02.224Z,17.60
2022-10-29T18:12:28.772Z,17.80
2022-10-29T18:14:55.835Z,17.97
2022-10-29T18:17:22.466Z,16.63
2022-10-29T18:19:49.007Z,18.27
2022-10-29T18:22:15.678Z,17.03
2022-10-29T18:24:42.223Z,16.43
2022-10-29T18:27:09.078Z,16.03
2022-10-29T18:29:35.711Z,16.60
2022-10-29T18:32:02.287Z,16.67
2022-10-29T18:34:28.791Z,16.57
2022-10-29T18:36:55.296Z,16.57
2022-10-29T18:39:21.834Z,15.70
2022-10-29T18:41:48.423Z,15.60
2022-10-29T18:44:15.139Z,15.90
2022-10-29T18:46:41.708Z,17.37
2022-10-29T18:49:11.109Z,16.63
2022-10-29T18:51:37.619Z,16.67
2022-10-29T18:54:04.540Z,17.13
2022-10-29T18:56:31.391Z,17.17
2022-10-29T18:58:59.233Z,16.10
2022-10-29T19:01:28.657Z,15.93
2022-10-29T19:03:57.609Z,16.67
2022-10-29T19:06:26.405Z,16.77
2022-10-29T19:08:53.506Z,16.33
2022-10-29T19:11:28.322Z,15.90
2022-10-29T19:14:03.990Z,17.37
2022-10-29T19:16:32.575Z,16.47
2022-10-29T19:19:01.589Z,16.07
2022-10-29T19:21:28.121Z,16.23
2022-10-29T19:24:00.656Z,17.43
2022-10-29T19:26:29.697Z,17.10
2022-10-29T19:28:59.341Z,18.17
2022-10-29T19:31:28.043Z,17.60
2022-10-29T19:33:57.270Z,17.50
2022-10-29T19:36:25.075Z,17.43
2022-10-29T19:38:52.055Z,17.47
2022-10-29T19:41:18.711Z,18.73
2022-10-29T19:43:45.652Z,17.53
2022-10-29T19:46:15.097Z,16.67
2022-10-29T19:48:43.826Z,17.07
2022-10-29T19:51:10.869Z,17.67
2022-10-29T19:53:38.904Z,17.00
2022-10-29T19:56:09.531Z,18.10
2022-10-29T19:58:36.117Z,17.00
2022-10-29T20:01:08.559Z,17.17
2022-10-29T20:03:36.247Z,18.03
2022-10-29T20:06:03.532Z,18.30
2022-10-29T20:08:30.212Z,18.17
2022-10-29T20:10:58.588Z,18.60
2022-10-29T20:13:25.777Z,17.93
2022-10-29T20:15:53.639Z,17.93
2022-10-29T20:18:20.670Z,18.50
2022-10-29T20:20:53.552Z,18.07
2022-10-29T20:23:20.164Z,18.60
2022-10-29T20:25:46.721Z,19.60
2022-10-29T20:28:13.325Z,18.70
2022-10-29T20:30:40.005Z,18.70
2022-10-29T20:33:06.753Z,19.03
2022-10-29T20:35:33.361Z,18.50
2022-10-29T20:38:00.193Z,19.50
2022-10-29T20:40:26.914Z,18.90
2022-10-29T20:42:53.490Z,19.50
2022-10-29T20:45:20.067Z,19.63
2022-10-29T20:47:46.600Z,20.03
2022-10-29T20:50:13.549Z,19.90
2022-10-29T20:52:43.260Z,19.33
2022-10-29T20:55:13.843Z,19.63
2022-10-29T20:57:40.362Z,20.20
2022-10-29T21:00:09.505Z,18.97
2022-10-29T21:02:36.114Z,20.30
2022-10-29T21:05:02.796Z,19.90
2022-10-29T21:07:29.311Z,21.57
2022-10-29T21:09:55.867Z,20.50
2022-10-29T21:12:22.407Z,20.50
2022-10-29T21:14:48.903Z,19.80
2022-10-29T21:17:15.393Z,21.20
2022-10-29T21:19:41.913Z,20.07
2022-10-29T21:22:08.470Z,20.90
2022-10-29T21:24:36.434Z,21.63
2022-10-29T21:27:04.051Z,20.40
2022-10-29T21:29:30.625Z,20.67
2022-10-29T21:31:57.690Z,22.03
2022-10-29T21:34:24.263Z,21.60
2022-10-29T21:36:50.826Z,20.90
2022-10-29T21:39:17.872Z,21.60
2022-10-29T21:41:44.430Z,21.37
2022-10-29T21:44:10.952Z,20.53
2022-10-29T21:46:37.454Z,21.30
2022-10-29T21:49:03.976Z,22.50
2022-10-29T21:51:30.528Z,22.63
2022-10-29T21:53:57.660Z,20.73
2022-10-29T21:56:24.781Z,20.70
2022-10-29T21:58:54.759Z,20.47
2022-10-29T22:01:21.612Z,20.67
2022-10-29T22:03:48.409Z,22.07
2022-10-29T22:06:20.510Z,22.50
2022-10-29T22:08:52.362Z,20.23
2022-10-29T22:11:18.906Z,20.40
2022-10-29T22:13:45.426Z,20.97
2022-10-29T22:16:12.320Z,20.40
2022-10-29T22:18:39.188Z,20.30
2022-10-29T22:21:18.481Z,22.33
2022-10-29T22:23:53.044Z,20.67
2022-10-29T22:26:21.695Z,20.37
2022-10-29T22:28:48.472Z,23.03
2022-10-29T22:31:16.204Z,20.57
2022-10-29T22:33:43.654Z,19.87
2022-10-29T22:36:14.965Z,20.53
2022-10-29T22:38:41.803Z,20.77
2022-10-29T22:41:18.666Z,21.17
2022-10-29T22:43:45.359Z,20.27
2022-10-29T22:46:14.065Z,21.43
2022-10-29T22:48:40.845Z,21.00
2022-10-29T22:51:12.207Z,21.80
2022-10-29T22:53:38.825Z,21.70
2022-10-29T22:56:05.818Z,20.73
2022-10-29T22:58:32.940Z,19.93
2022-10-29T23:01:10.667Z,20.77
2022-10-29T23:03:39.346Z,21.00
2022-10-29T23:06:07.645Z,19.70
2022-10-29T23:08:34.861Z,20.17
2022-10-29T23:11:21.384Z,20.33
2022-10-29T23:13:56.711Z,20.00
2022-10-29T23:16:24.968Z,18.97
2022-10-29T23:18:53.296Z,20.07
2022-10-29T23:21:20.901Z,19.87
2022-10-29T23:23:49.859Z,19.73
2022-10-29T23:26:18.868Z,20.17
2022-10-29T23:28:45.610Z,19.17
2022-10-29T23:31:17.648Z,18.80
2022-10-29T23:33:45.891Z,18.83
2022-10-29T23:36:13.348Z,18.20
2022-10-29T23:38:40.005Z,17.00
2022-10-29T23:41:06.854Z,17.53
2022-10-29T23:43:33.902Z,16.03
2022-10-29T23:46:00.701Z,17.10
2022-10-29T23:48:27.691Z,15.60
2022-10-29T23:50:54.918Z,15.77
2022-10-29T23:53:21.591Z,17.10
2022-10-29T23:55:48.286Z,16.00
2022-10-29T23:58:15.247Z,16.37
